Terminal Aerodrome Forecast
Issued by NWS Nashville, TN

Home | Current Version | Previous Version | Text Only | Print | Product List | Glossary On
Versions: 1 2 3 4 5 6 7 8 9 10 11 12 13 14 15 16 17 18 19 20 21 22
000
FTUS44 KOHX 021100
TAFBNA
TAF
KBNA 021120Z 0212/0312 01010KT 6SM BR SCT006 OVC015
     FM021500 04010KT P6SM OVC025
     FM021800 05008KT P6SM BKN050
     FM030200 06004KT P6SM OVC025
     FM030900 14005KT 5SM -SHRA BR OVC015=

USA.gov is the U.S. government's official web portal to all federal, state and local government web resources and services.